18:45
Airports
History
Links
Donate
Help keep this website running!
PayPal
Bitcoin
This page is community maintained. The information is intended for PC simulator navigation or reference.
Always use approved charts for navigation.
IA76
Cobb Farm
Cobb Farm (IA76)
Corydon, Iowa, United States (50060)
4
Lat/Lng:40° 43' 41.02" N / 93° 20' 35.76" W
40.728062 / -93.343268
Elevation:1100'ft / 335mMSL
ID / ICAO:IA76
Runways:1
Longest:17-35
Grass 756m / 2,482ft
Nearby Weather18:35 GMT 2017-09-19
Nearby weather at KCNC, Chariton Muni located 20.2 nautical miles from IA76
Altimeter: 29.86
Visibility: 10.0 statute miles
Wind: 9 knots (from 140°)
Temp: 27°c / 81°f
Humidity: 69.8%

METAR: KCNC 191835Z AUTO 14009G14KT 10SM SCT027 BKN033 BKN039 27/21 A2986 RMK AO2

(Powered by phpweather)
Nearby VORs <50NM
Nearby NDBs
Runway 17 / 35
Dimensions:756.4 x 22.9m 2482' x 75'ft
Surface:Grass
Runway 17 [A]Runway 35 [B]
Heading:173°TH 353°TH
Lat:
Lng:
40° 43' 53.3"N
93° 20' 37.47"W
40° 43' 28.75"N
93° 20' 34.06"W
User Notes and Comments
40° 43' 41.02" N / 93° 20' 35.76" W
Distance To
Airport ID:
Nearby Airports
4 Grismore 3.5 NM
IA07 NE 40°
(R) Moore Private 10.8 NM
0IA5 NNE 22°
(R) Watkins Private 13.1 NM
5IA3 NW 307°
(U) Chariton Muni 20.2 NM
KCNC ( WX ) N 357°
(U) Unionville Muni 21.1 NM
K43 SE 127°
(U) Centerville Muni 23.4 NM
KTVK E 97°
4 Rathbun Lake 26.8 NM
IA05 ENE 71°
VFR Chart
Flight Planning at SkyVector.com